createdAt,value
2023-04-30T00:00:36.902Z,20.43
2023-04-30T00:03:05.500Z,21.00
2023-04-30T00:05:34.951Z,18.65
2023-04-30T00:08:02.869Z,18.00
2023-04-30T00:10:30.834Z,17.63
2023-04-30T00:12:58.857Z,18.42
2023-04-30T00:15:26.906Z,17.90
2023-04-30T00:17:54.854Z,18.30
2023-04-30T00:20:22.800Z,17.53
2023-04-30T00:22:52.150Z,17.77
2023-04-30T00:25:21.148Z,18.27
2023-04-30T00:28:14.708Z,18.65
2023-04-30T00:30:42.735Z,19.13
2023-04-30T00:33:10.709Z,18.15
2023-04-30T00:35:38.722Z,17.37
2023-04-30T00:38:08.029Z,20.47
2023-04-30T00:40:36.310Z,19.90
2023-04-30T00:43:04.285Z,18.90
2023-04-30T00:45:32.360Z,17.90
2023-04-30T00:48:00.828Z,19.27
2023-04-30T00:50:30.069Z,20.77
2023-04-30T00:52:59.630Z,19.17
2023-04-30T00:55:29.174Z,19.53
2023-04-30T00:57:57.835Z,21.73
2023-04-30T01:00:26.386Z,20.30
2023-04-30T01:02:58.383Z,20.90
2023-04-30T01:05:26.611Z,20.00
2023-04-30T01:07:55.822Z,18.83
2023-04-30T01:10:26.199Z,19.33
2023-04-30T01:13:04.179Z,19.27
2023-04-30T01:15:37.695Z,19.00
2023-04-30T01:18:14.055Z,19.40
2023-04-30T01:20:49.815Z,19.70
2023-04-30T01:23:38.750Z,20.10
2023-04-30T01:26:15.211Z,21.10
2023-04-30T01:28:47.029Z,18.87
2023-04-30T01:31:16.606Z,19.70
2023-04-30T01:33:44.679Z,19.03
2023-04-30T01:36:31.840Z,20.40
2023-04-30T01:39:28.110Z,19.87
2023-04-30T01:42:03.896Z,19.87
2023-04-30T01:44:49.666Z,19.40
2023-04-30T01:47:28.079Z,20.60
2023-04-30T01:50:11.211Z,18.97
2023-04-30T01:52:47.309Z,20.10
2023-04-30T01:55:21.783Z,20.50
2023-04-30T01:57:58.605Z,20.47
2023-04-30T02:00:30.594Z,20.63
2023-04-30T02:02:59.296Z,21.83
2023-04-30T02:05:27.610Z,21.63
2023-04-30T02:07:57.138Z,21.27
2023-04-30T02:10:26.709Z,21.10
2023-04-30T02:12:54.962Z,23.40
2023-04-30T02:15:23.087Z,22.30
2023-04-30T02:17:52.578Z,23.27
2023-04-30T02:20:21.080Z,22.27
2023-04-30T02:22:49.020Z,25.00
2023-04-30T02:25:17.174Z,24.30
2023-04-30T02:27:45.105Z,22.67
2023-04-30T02:30:13.237Z,23.10
2023-04-30T02:32:41.245Z,24.43
2023-04-30T02:35:10.923Z,23.23
2023-04-30T02:37:39.257Z,24.47
2023-04-30T02:40:08.881Z,23.17
2023-04-30T02:42:36.827Z,24.27
2023-04-30T02:45:05.485Z,23.43
2023-04-30T02:47:33.493Z,23.47
2023-04-30T02:50:01.462Z,25.57
2023-04-30T02:52:30.760Z,25.30
2023-04-30T02:54:58.684Z,25.70
2023-04-30T02:57:26.651Z,25.27
2023-04-30T02:59:54.753Z,24.93
2023-04-30T03:02:23.706Z,25.60
2023-04-30T03:04:52.386Z,23.83
2023-04-30T03:07:20.326Z,24.70
2023-04-30T03:09:49.770Z,25.83
2023-04-30T03:12:17.722Z,27.50
2023-04-30T03:14:45.755Z,24.87
2023-04-30T03:17:14.936Z,25.77
2023-04-30T03:19:42.954Z,24.47
2023-04-30T03:22:11.647Z,25.67
2023-04-30T03:24:39.622Z,25.97
2023-04-30T03:27:08.983Z,25.27
2023-04-30T03:29:36.922Z,25.27
2023-04-30T03:32:05.215Z,26.73
2023-04-30T03:34:33.179Z,26.40
2023-04-30T03:37:03.900Z,26.77
2023-04-30T03:39:31.862Z,26.23
2023-04-30T03:42:00.359Z,27.27
2023-04-30T03:44:29.728Z,29.43
2023-04-30T03:46:57.699Z,28.13
2023-04-30T03:49:26.305Z,27.67
2023-04-30T03:51:54.314Z,28.20
2023-04-30T03:54:22.307Z,29.60
2023-04-30T03:56:50.315Z,28.80
2023-04-30T03:59:18.843Z,28.70
2023-04-30T04:01:48.213Z,27.77
2023-04-30T04:04:16.501Z,27.73
2023-04-30T04:06:44.630Z,28.03
2023-04-30T04:09:12.697Z,30.30
2023-04-30T04:11:43.205Z,28.15
2023-04-30T04:14:11.172Z,27.37
2023-04-30T04:16:39.546Z,29.97
2023-04-30T04:19:09.264Z,29.07
2023-04-30T04:21:37.889Z,28.17
2023-04-30T04:24:11.367Z,29.87
2023-04-30T04:26:39.400Z,28.37
2023-04-30T04:29:08.866Z,27.87
2023-04-30T04:31:37.127Z,28.17
2023-04-30T04:34:06.490Z,26.80
2023-04-30T04:36:36.093Z,26.63
2023-04-30T04:39:06.579Z,26.93
2023-04-30T04:41:36.263Z,27.25
2023-04-30T04:44:05.349Z,26.45
2023-04-30T04:46:33.832Z,27.27
2023-04-30T04:49:02.312Z,28.30
2023-04-30T04:51:30.522Z,27.97
2023-04-30T04:53:59.853Z,28.93
2023-04-30T04:56:27.897Z,27.07
2023-04-30T04:58:55.865Z,26.33
2023-04-30T05:01:23.890Z,27.13
2023-04-30T05:03:53.713Z,28.57
2023-04-30T05:06:21.991Z,28.90
2023-04-30T05:08:50.040Z,27.97
2023-04-30T05:11:19.748Z,26.43
2023-04-30T05:13:47.837Z,28.67
2023-04-30T05:16:16.457Z,26.77
2023-04-30T05:18:44.455Z,28.03
2023-04-30T05:21:12.498Z,27.03
2023-04-30T05:23:40.481Z,28.50
2023-04-30T05:26:08.451Z,27.67
2023-04-30T05:28:37.726Z,26.33
2023-04-30T05:31:05.687Z,26.87
2023-04-30T05:33:33.947Z,26.87
2023-04-30T05:36:01.901Z,26.13
2023-04-30T05:38:29.854Z,26.40
2023-04-30T05:40:57.846Z,25.27
2023-04-30T05:43:25.791Z,25.53
2023-04-30T05:45:55.216Z,24.67
2023-04-30T05:48:23.214Z,23.13
2023-04-30T05:50:51.094Z,23.77
2023-04-30T05:53:19.081Z,24.03
2023-04-30T05:55:47.094Z,24.10
2023-04-30T05:58:15.148Z,23.80
2023-04-30T06:00:43.093Z,23.77
2023-04-30T06:03:12.416Z,21.73
2023-04-30T06:05:41.549Z,23.17
2023-04-30T06:08:09.810Z,24.10
2023-04-30T06:10:38.035Z,21.47
2023-04-30T06:13:06.169Z,21.63
2023-04-30T06:15:34.320Z,21.13
2023-04-30T06:18:02.325Z,21.57
2023-04-30T06:20:31.689Z,20.87
2023-04-30T06:23:00.165Z,22.30
2023-04-30T06:25:28.114Z,21.07
2023-04-30T06:27:56.215Z,20.77
2023-04-30T06:30:24.216Z,21.90
2023-04-30T06:32:52.277Z,21.57
2023-04-30T06:35:20.350Z,21.50
2023-04-30T06:37:49.652Z,21.70
2023-04-30T06:40:17.878Z,20.67
2023-04-30T06:42:47.600Z,21.90
2023-04-30T06:45:16.162Z,21.43
2023-04-30T06:47:46.191Z,22.87
2023-04-30T06:50:15.706Z,20.07
2023-04-30T06:52:43.833Z,22.43
2023-04-30T06:55:13.123Z,20.97
2023-04-30T06:57:41.099Z,22.63
2023-04-30T07:00:11.926Z,20.77
2023-04-30T07:02:40.015Z,21.25
2023-04-30T07:05:09.185Z,22.40
2023-04-30T07:07:37.138Z,21.20
2023-04-30T07:10:05.801Z,21.40
2023-04-30T07:12:35.159Z,21.23
2023-04-30T07:15:03.503Z,21.05
2023-04-30T07:17:31.853Z,22.25
2023-04-30T07:19:59.818Z,22.83
2023-04-30T07:22:27.907Z,24.63
2023-04-30T07:24:56.489Z,23.05
2023-04-30T07:27:24.550Z,22.17
2023-04-30T07:29:56.488Z,22.55
2023-04-30T07:32:27.173Z,21.90
2023-04-30T07:34:55.251Z,22.58
2023-04-30T07:37:23.225Z,22.73
2023-04-30T07:39:51.198Z,22.27
2023-04-30T07:42:19.113Z,22.90
2023-04-30T07:44:48.924Z,22.88
2023-04-30T07:47:19.669Z,22.63
2023-04-30T07:49:47.991Z,22.90
2023-04-30T07:52:18.454Z,25.42
2023-04-30T07:54:49.994Z,21.20
2023-04-30T07:57:17.989Z,23.73
2023-04-30T07:59:46.134Z,24.10
2023-04-30T08:02:14.407Z,24.33
2023-04-30T08:04:45.298Z,23.73
2023-04-30T08:09:41.387Z,23.58
2023-04-30T08:12:13.093Z,25.20
2023-04-30T08:14:41.012Z,23.45
2023-04-30T08:17:11.020Z,23.02
2023-04-30T08:19:38.965Z,22.17
2023-04-30T08:22:08.282Z,23.80
2023-04-30T08:24:38.507Z,22.27
2023-04-30T08:27:06.553Z,21.55
2023-04-30T08:29:35.939Z,22.00
2023-04-30T08:32:07.784Z,20.65
2023-04-30T08:34:36.218Z,20.50
2023-04-30T08:37:04.188Z,20.30
2023-04-30T08:39:34.341Z,20.08
2023-04-30T08:42:05.146Z,20.27
2023-04-30T08:44:35.340Z,19.58
2023-04-30T08:47:04.495Z,19.10
2023-04-30T08:49:33.247Z,18.88
2023-04-30T08:52:02.177Z,18.42
2023-04-30T08:54:33.472Z,18.63
2023-04-30T08:57:01.578Z,16.45
2023-04-30T08:59:29.589Z,17.33
2023-04-30T09:01:57.602Z,16.90
2023-04-30T09:04:25.639Z,16.15
2023-04-30T09:06:58.854Z,16.20
2023-04-30T09:09:30.612Z,17.13
2023-04-30T09:12:23.727Z,15.68
2023-04-30T09:15:02.160Z,14.48
2023-04-30T09:17:30.745Z,13.88
2023-04-30T09:20:08.359Z,15.25
2023-04-30T09:22:38.368Z,13.90
2023-04-30T09:25:07.808Z,14.55
2023-04-30T09:28:51.144Z,13.80
2023-04-30T09:31:22.231Z,15.07
2023-04-30T09:33:50.698Z,11.50
2023-04-30T09:36:18.688Z,12.27
2023-04-30T09:38:46.972Z,12.65
2023-04-30T09:41:40.779Z,14.18
2023-04-30T09:44:08.992Z,11.77
2023-04-30T09:46:38.510Z,10.20
2023-04-30T09:49:07.475Z,10.52
2023-04-30T09:51:35.721Z,11.05
2023-04-30T09:54:04.323Z,12.00
2023-04-30T09:56:36.626Z,10.50
2023-04-30T09:59:07.582Z,10.13
2023-04-30T10:01:40.383Z,9.18
2023-04-30T10:04:10.732Z,9.10
2023-04-30T10:06:39.963Z,9.20
2023-04-30T10:09:11.831Z,9.45
2023-04-30T10:11:42.284Z,10.18
2023-04-30T10:14:12.951Z,8.68
2023-04-30T10:19:19.871Z,8.65
2023-04-30T10:21:48.565Z,8.43
2023-04-30T10:24:19.490Z,7.63
2023-04-30T10:26:48.918Z,8.05
2023-04-30T10:29:18.885Z,8.52
2023-04-30T10:31:49.193Z,8.90
2023-04-30T10:34:27.083Z,9.60
2023-04-30T10:37:00.089Z,10.20
2023-04-30T10:39:29.206Z,10.50
2023-04-30T10:42:04.191Z,11.40
2023-04-30T10:44:33.607Z,10.93
2023-04-30T10:47:02.759Z,11.27
2023-04-30T10:49:32.843Z,12.02
2023-04-30T10:52:03.625Z,12.15
2023-04-30T10:57:12.148Z,13.13
2023-04-30T10:59:45.131Z,13.50
2023-04-30T11:02:16.447Z,12.90
2023-04-30T11:05:15.456Z,13.10
2023-04-30T11:07:50.785Z,12.48
2023-04-30T11:10:22.776Z,13.45
2023-04-30T11:12:52.203Z,13.20
2023-04-30T11:15:22.801Z,13.30
2023-04-30T11:20:24.059Z,10.18
2023-04-30T11:23:10.420Z,10.93
2023-04-30T11:25:42.392Z,9.50
2023-04-30T11:28:15.544Z,9.50
2023-04-30T11:30:51.822Z,9.73
2023-04-30T11:33:20.701Z,8.07
2023-04-30T11:35:52.898Z,8.73
2023-04-30T11:38:22.639Z,10.32
2023-04-30T11:40:52.273Z,8.13
2023-04-30T11:43:24.875Z,7.35
2023-04-30T11:46:07.593Z,7.72
2023-04-30T11:48:36.325Z,7.55
2023-04-30T11:51:16.196Z,7.97
2023-04-30T11:53:46.685Z,8.55
2023-04-30T11:56:14.636Z,8.43
2023-04-30T11:59:56.732Z,8.68
2023-04-30T12:02:25.107Z,8.50
2023-04-30T12:04:53.157Z,9.85
2023-04-30T12:07:23.445Z,10.40
2023-04-30T12:09:55.591Z,20.25
2023-04-30T12:12:30.106Z,8.02
2023-04-30T12:14:58.479Z,7.57
2023-04-30T12:17:33.955Z,7.70
2023-04-30T12:20:02.312Z,10.35
2023-04-30T12:22:32.041Z,8.60
2023-04-30T12:25:02.351Z,9.25
2023-04-30T12:27:31.918Z,7.85
2023-04-30T12:30:04.090Z,8.00
2023-04-30T12:32:33.415Z,7.15
2023-04-30T12:35:03.090Z,7.85
2023-04-30T12:37:32.464Z,6.40
2023-04-30T12:40:00.907Z,7.10
2023-04-30T12:42:34.333Z,6.55
2023-04-30T12:45:02.754Z,6.78
2023-04-30T12:47:31.267Z,6.15
2023-04-30T12:49:59.357Z,7.38
2023-04-30T12:52:27.716Z,6.28
2023-04-30T12:54:57.046Z,6.50
2023-04-30T12:57:25.119Z,6.40
2023-04-30T13:00:01.006Z,5.63
2023-04-30T13:02:32.094Z,5.15
2023-04-30T13:05:00.589Z,5.60
2023-04-30T13:07:38.564Z,4.25
2023-04-30T13:10:08.806Z,4.45
2023-04-30T13:12:36.790Z,5.32
2023-04-30T13:15:05.260Z,5.63
2023-04-30T13:17:33.407Z,5.57
2023-04-30T13:20:01.677Z,5.22
2023-04-30T13:22:30.246Z,5.93
2023-04-30T13:24:58.338Z,5.95
2023-04-30T13:27:27.869Z,5.78
2023-04-30T13:29:58.312Z,5.97
2023-04-30T13:34:56.156Z,5.40
2023-04-30T13:37:24.193Z,4.75
2023-04-30T13:39:52.350Z,6.00
2023-04-30T13:42:48.165Z,5.10
2023-04-30T13:45:16.441Z,4.53
2023-04-30T13:47:44.833Z,5.70
2023-04-30T13:50:13.240Z,5.90
2023-04-30T13:57:05.373Z,6.35
2023-04-30T13:59:35.036Z,5.07
2023-04-30T14:02:03.112Z,5.25
2023-04-30T14:04:31.490Z,5.30
2023-04-30T14:06:59.687Z,5.20
2023-04-30T14:09:27.982Z,4.47
2023-04-30T14:11:59.069Z,3.75
2023-04-30T14:14:27.197Z,5.15
2023-04-30T14:16:56.744Z,4.75
2023-04-30T14:19:24.869Z,5.90
2023-04-30T14:21:52.892Z,4.40
2023-04-30T14:24:20.798Z,5.32
2023-04-30T14:26:48.752Z,4.13
2023-04-30T14:29:20.385Z,4.90
2023-04-30T14:31:49.535Z,4.95
2023-04-30T14:34:19.823Z,4.22
2023-04-30T14:36:48.161Z,4.57
2023-04-30T14:39:16.150Z,4.60
2023-04-30T14:41:44.255Z,4.07
2023-04-30T14:44:12.381Z,5.22
2023-04-30T14:46:40.805Z,4.70
2023-04-30T14:49:08.800Z,4.75
2023-04-30T14:51:38.168Z,5.70
2023-04-30T14:54:06.204Z,5.43
2023-04-30T14:56:34.390Z,4.95
2023-04-30T14:59:02.334Z,6.55
2023-04-30T15:01:30.537Z,6.90
2023-04-30T15:03:58.792Z,5.13
2023-04-30T15:06:27.004Z,5.45
2023-04-30T15:08:56.636Z,5.43
2023-04-30T15:11:25.115Z,5.30
2023-04-30T15:13:54.571Z,4.68
2023-04-30T15:16:23.283Z,5.20
2023-04-30T15:18:51.482Z,5.32
2023-04-30T15:21:19.700Z,6.00
2023-04-30T15:23:47.761Z,6.32
2023-04-30T15:26:17.146Z,6.38
2023-04-30T15:28:45.369Z,6.45
2023-04-30T15:31:13.435Z,6.45
2023-04-30T15:33:42.254Z,6.57
2023-04-30T15:36:11.645Z,5.72
2023-04-30T15:38:39.721Z,6.35
2023-04-30T15:41:07.755Z,5.72
2023-04-30T15:43:37.150Z,4.50
2023-04-30T15:46:05.375Z,4.38
2023-04-30T15:48:33.350Z,5.32
2023-04-30T15:51:01.378Z,6.32
2023-04-30T15:53:29.282Z,4.97
2023-04-30T15:55:57.496Z,5.40
2023-04-30T15:58:25.591Z,4.85
2023-04-30T16:00:54.897Z,5.20
2023-04-30T16:03:23.009Z,5.13
2023-04-30T16:05:51.268Z,5.32
2023-04-30T16:08:19.342Z,5.07
2023-04-30T16:10:47.410Z,4.97
2023-04-30T16:13:15.371Z,4.93
2023-04-30T16:15:43.321Z,4.88
2023-04-30T16:18:12.711Z,5.43
2023-04-30T16:20:42.596Z,4.95
2023-04-30T16:23:10.597Z,5.22
2023-04-30T16:25:38.682Z,5.38
2023-04-30T16:28:06.737Z,6.00
2023-04-30T16:30:35.113Z,5.57
2023-04-30T16:33:03.112Z,5.65
2023-04-30T16:35:32.562Z,5.75
2023-04-30T16:38:02.593Z,6.15
2023-04-30T16:40:30.996Z,6.22
2023-04-30T16:43:00.692Z,6.57
2023-04-30T16:45:30.306Z,6.57
2023-04-30T16:47:58.430Z,6.22
2023-04-30T16:50:27.006Z,5.97
2023-04-30T16:52:56.361Z,7.40
2023-04-30T16:55:25.146Z,5.13
2023-04-30T16:57:53.940Z,4.90
2023-04-30T17:00:22.056Z,6.07
2023-04-30T17:02:52.838Z,5.40
2023-04-30T17:05:21.446Z,5.03
2023-04-30T17:07:49.815Z,5.80
2023-04-30T17:10:19.645Z,5.45
2023-04-30T17:12:47.771Z,5.27
2023-04-30T17:15:15.737Z,6.47
2023-04-30T17:17:43.747Z,5.43
2023-04-30T17:20:13.322Z,5.70
2023-04-30T17:22:41.381Z,4.88
2023-04-30T17:25:10.359Z,5.22
2023-04-30T17:27:39.807Z,4.93
2023-04-30T17:30:09.838Z,5.50
2023-04-30T17:32:38.294Z,6.07
2023-04-30T17:35:07.435Z,5.57
2023-04-30T17:37:35.944Z,5.38
2023-04-30T17:40:05.447Z,6.63
2023-04-30T17:42:34.117Z,5.85
2023-04-30T17:45:03.619Z,5.55
2023-04-30T17:47:32.244Z,5.45
2023-04-30T17:50:00.452Z,6.88
2023-04-30T17:52:28.394Z,6.75
2023-04-30T17:54:56.937Z,7.45
2023-04-30T17:57:25.284Z,7.45
2023-04-30T17:59:53.346Z,8.27
2023-04-30T18:02:22.972Z,8.25
2023-04-30T18:04:51.203Z,8.32
2023-04-30T18:07:19.309Z,8.60
2023-04-30T18:09:47.580Z,8.52
2023-04-30T18:12:15.629Z,8.73
2023-04-30T18:14:43.548Z,8.43
2023-04-30T18:17:11.576Z,9.88
2023-04-30T18:19:44.492Z,12.32
2023-04-30T18:22:12.818Z,9.50
2023-04-30T18:24:40.969Z,9.80
2023-04-30T18:27:09.318Z,9.50
2023-04-30T18:29:37.550Z,9.68
2023-04-30T18:32:06.215Z,9.40
2023-04-30T18:34:34.336Z,9.88
2023-04-30T18:37:03.712Z,9.85
2023-04-30T18:39:32.023Z,10.07
2023-04-30T18:42:00.144Z,9.73
2023-04-30T18:44:31.630Z,10.68
2023-04-30T18:46:59.614Z,11.00
2023-04-30T18:49:27.649Z,10.90
2023-04-30T18:51:56.508Z,10.38
2023-04-30T18:54:25.921Z,10.35
2023-04-30T18:56:54.193Z,11.18
2023-04-30T18:59:22.720Z,11.20
2023-04-30T19:01:51.050Z,11.40
2023-04-30T19:04:19.047Z,11.85
2023-04-30T19:06:49.709Z,10.32
2023-04-30T19:09:17.920Z,6.72
2023-04-30T19:11:47.938Z,8.18
2023-04-30T19:14:15.880Z,7.40
2023-04-30T19:16:44.554Z,7.18
2023-04-30T19:19:12.821Z,7.68
2023-04-30T19:21:40.829Z,8.02
2023-04-30T19:24:08.795Z,8.82
2023-04-30T19:26:37.900Z,8.82
2023-04-30T19:29:07.209Z,8.40
2023-04-30T19:31:35.679Z,8.45
2023-04-30T19:34:03.811Z,8.40
2023-04-30T19:36:32.134Z,8.32
2023-04-30T19:39:00.281Z,8.25
2023-04-30T19:41:29.021Z,7.85
2023-04-30T19:43:57.031Z,9.38
2023-04-30T19:46:27.081Z,10.05
2023-04-30T19:48:55.155Z,9.43
2023-04-30T19:51:23.174Z,9.45
2023-04-30T19:53:52.187Z,8.57
2023-04-30T19:56:20.186Z,8.73
2023-04-30T19:58:48.475Z,8.55
2023-04-30T20:01:16.622Z,8.93
2023-04-30T20:03:46.022Z,8.18
2023-04-30T20:06:14.097Z,8.68
2023-04-30T20:08:42.096Z,8.73
2023-04-30T20:11:10.175Z,8.93
2023-04-30T20:13:38.147Z,9.70
2023-04-30T20:16:06.749Z,9.48
2023-04-30T20:18:34.938Z,7.88
2023-04-30T20:21:04.681Z,8.93
2023-04-30T20:23:32.658Z,9.80
2023-04-30T20:26:00.591Z,8.40
2023-04-30T20:28:28.549Z,10.13
2023-04-30T20:30:56.619Z,9.30
2023-04-30T20:33:49.402Z,9.68
2023-04-30T20:36:19.532Z,9.48
2023-04-30T20:38:48.002Z,11.07
2023-04-30T20:41:15.978Z,9.52
2023-04-30T20:43:43.938Z,9.38
2023-04-30T20:46:13.803Z,9.65
2023-04-30T20:48:41.978Z,9.32
2023-04-30T20:51:10.827Z,9.15
2023-04-30T20:53:40.387Z,8.80
2023-04-30T20:56:08.858Z,8.60
2023-04-30T20:58:36.995Z,9.10
2023-04-30T21:01:05.078Z,8.15
2023-04-30T21:03:33.115Z,8.70
2023-04-30T21:06:01.148Z,8.45
2023-04-30T21:08:29.121Z,8.02
2023-04-30T21:10:58.482Z,8.30
2023-04-30T21:13:26.659Z,7.70
2023-04-30T21:15:56.383Z,6.75
2023-04-30T21:18:26.634Z,6.72
2023-04-30T21:20:56.388Z,7.70
2023-04-30T21:23:24.378Z,5.93
2023-04-30T21:25:55.091Z,6.65
2023-04-30T21:28:24.472Z,6.43
2023-04-30T21:30:52.480Z,6.80
2023-04-30T21:33:20.921Z,6.40
2023-04-30T21:35:49.121Z,6.80
2023-04-30T21:38:17.035Z,6.50
2023-04-30T21:40:45.028Z,5.57
2023-04-30T21:43:12.991Z,6.50
2023-04-30T21:45:43.554Z,5.97
2023-04-30T21:48:11.590Z,6.18
2023-04-30T21:50:40.169Z,6.53
2023-04-30T21:53:08.309Z,6.32
2023-04-30T21:55:36.313Z,6.13
2023-04-30T21:58:04.498Z,6.28
2023-04-30T22:00:32.737Z,6.68
2023-04-30T22:03:02.128Z,6.55
2023-04-30T22:05:30.139Z,6.07
2023-04-30T22:07:58.198Z,6.47
2023-04-30T22:10:26.278Z,6.32
2023-04-30T22:12:54.220Z,6.53
2023-04-30T22:15:22.389Z,6.90
2023-04-30T22:17:50.467Z,6.65
2023-04-30T22:20:19.910Z,6.05
2023-04-30T22:22:47.966Z,6.68
2023-04-30T22:25:17.699Z,6.65
2023-04-30T22:27:45.933Z,6.75
2023-04-30T22:30:14.009Z,6.55
2023-04-30T22:32:42.360Z,6.95
2023-04-30T22:35:11.479Z,6.70
2023-04-30T22:37:40.865Z,6.80
2023-04-30T22:40:09.829Z,7.43
2023-04-30T22:42:37.769Z,6.50
2023-04-30T22:45:06.702Z,7.00
2023-04-30T22:47:35.271Z,7.15
2023-04-30T22:50:04.214Z,6.82
2023-04-30T22:52:33.227Z,7.18
2023-04-30T22:55:03.195Z,6.72
2023-04-30T22:57:31.272Z,7.27
2023-04-30T22:59:59.333Z,6.80
2023-04-30T23:02:27.804Z,7.05
2023-04-30T23:04:55.787Z,7.95
2023-04-30T23:07:23.719Z,8.63
2023-04-30T23:09:52.075Z,8.10
2023-04-30T23:12:22.478Z,7.90
2023-04-30T23:14:50.949Z,9.65
2023-04-30T23:17:19.022Z,9.25
2023-04-30T23:19:47.023Z,8.88
2023-04-30T23:22:14.981Z,9.70
2023-04-30T23:24:42.942Z,10.48
2023-04-30T23:27:11.380Z,10.23
2023-04-30T23:29:40.844Z,10.88
2023-04-30T23:32:08.819Z,10.45
2023-04-30T23:34:36.986Z,11.63
2023-04-30T23:37:05.039Z,11.80
2023-04-30T23:39:33.584Z,10.70
2023-04-30T23:42:02.522Z,10.52
2023-04-30T23:44:32.508Z,11.02
2023-04-30T23:47:02.105Z,11.30
2023-04-30T23:49:30.032Z,11.32
2023-04-30T23:51:57.967Z,10.68
2023-04-30T23:54:26.028Z,11.35
2023-04-30T23:56:54.069Z,11.90
2023-04-30T23:59:22.072Z,11.40
